Airfield :
LOGIN :

Register | Disclaimer

   EN    FR    IT 

 










Legend :    VFR   Marginal VFR   IFR   Intensive IFR   Very Intensive IFR
Visi :
Ceiling :
>= 8 km
>= 3000ft
5 to 8 km
1000 to 3000 ft
1500m to 5 km
500 to 1000 ft
800 to 1500m
200 to 500 ft
< 800m
< 200 ft
Symbols :   Thunderstorms  Fog  Heavy snow  Heavy precipitations  Wind > 20 kt
SIGMETs :     Misc.  Thunderstorms  Icing  Turbulence  Mountain Waves  Volcanic Ashes







- Airport Elevation : 616 ft
- IATA code : PUF
- Download approach charts


LFBP - Pau

CURRENT METAR :
  • 160730Z AUTO VRB02KT 9999 BKN003 10/09 Q1016 TEMPO 3000 BR BECMG BKN010

EXPIRED METARs :
  • 160700Z AUTO 00000KT 9999 VV/// 08/08 Q1016 TEMPO 3000 BR BECMG BKN010
  • 160630Z AUTO VRB02KT 1100 0550 R31/0800D R13/0650D BCFG VV/// 08/08 Q1015 TEMPO 3000 BR BECMG BKN010
  • 160600Z AUTO 21002KT 0650 0450 R31/1700U R13/0800U FG VV/// 08/08 Q1015 TEMPO 0500 FG
  • 160530Z AUTO 12002KT 1800 0550 R31/0600D R13/1100D BCFG VV/// 08/08 Q1015 TEMPO 0500 FG
  • 160500Z AUTO VRB01KT 1100 1000 R31/0900U R13/0900U BR VV/// 08/08 Q1014 TEMPO 0500 FG

TAF TAF LFBP
Valid from the 16 at 06:00 until the 17 at 06:00 UTC


160500Z 1606/1706 VRB03KT 9999 BKN010
TEMPO 1606/1609 3000 BR
PROB40
TEMPO 1606/1608 0500 FG VV///
BECMG 1610/1612 SCT017
BECMG 1617/1619 CAVOK
BECMG 1623/1701 BKN030
TEMPO 1622/1706 2000 BR
No reported NOTAMs for that airfield.



MET'MAP, your aeronautical weather chart ! - Copyright ORBIFLY December 2007 - Disclaimer

ORBIFLY MET'MAP TEAM :

Programming & Development : Alexandra Zaïnal
Concept & Development : Baudouin d'Aumeries
Co-Development & Prog : Marc-Olivier Méhu
Technical & hardware support : Manuel Goepfert

Contact : metmap@orbifly.com




SOURCES & CREDITS :

   NOAA